Lafitte, Louisiana
Current Conditions -  °F | °C
As of 7:55 PM on Friday 24 Oct 2014 (Local Time) from KNBG Reporting Station
Few Clouds Few Clouds  
Wind Chill: 57°   Ceiling: Unl
Heat Index: 57°   Visibility: 10mi
Dew Point: 51°   Wind: 0mph
Humidity: 81%   Direction: NA
Pressure: 30.07"   Gusts: NA
Location:  29.68°N, 90.1°W
Report Text: KNBG 250055Z 00000KT 10SM FEW250 14/11 A3007 RMK AO2 SLP183 T01390106 $
Loading
Personal Weather Stations






























Interactive Weather Map
Tropical Storm Tracking
New forecast layout! Learn more

10-Day Weather Forecast

Advertisements
Track Severe Weather on mobile